sensor_id;sensor_type;location;lat;lon;timestamp;P1;durP1;ratioP1;P2;durP2;ratioP2
55603;SDS011;41468;48.838;9.330;2023-03-08T00:01:02;7.10;;;5.27;;
55603;SDS011;41468;48.838;9.330;2023-03-08T00:03:29;5.87;;;5.27;;
55603;SDS011;41468;48.838;9.330;2023-03-08T00:05:56;7.67;;;5.47;;
55603;SDS011;41468;48.838;9.330;2023-03-08T00:08:22;7.27;;;5.43;;
55603;SDS011;41468;48.838;9.330;2023-03-08T00:10:49;7.77;;;5.47;;
55603;SDS011;41468;48.838;9.330;2023-03-08T00:13:16;7.63;;;5.67;;
55603;SDS011;41468;48.838;9.330;2023-03-08T00:15:42;8.57;;;6.40;;
55603;SDS011;41468;48.838;9.330;2023-03-08T00:18:09;7.93;;;5.30;;
55603;SDS011;41468;48.838;9.330;2023-03-08T00:20:36;6.80;;;5.57;;
55603;SDS011;41468;48.838;9.330;2023-03-08T00:23:02;7.33;;;5.10;;
55603;SDS011;41468;48.838;9.330;2023-03-08T00:25:29;7.70;;;5.73;;
55603;SDS011;41468;48.838;9.330;2023-03-08T00:27:56;6.40;;;5.40;;
55603;SDS011;41468;48.838;9.330;2023-03-08T00:30:22;7.23;;;5.47;;
55603;SDS011;41468;48.838;9.330;2023-03-08T00:32:49;10.50;;;5.60;;
55603;SDS011;41468;48.838;9.330;2023-03-08T00:35:15;6.70;;;5.40;;
55603;SDS011;41468;48.838;9.330;2023-03-08T00:37:45;7.37;;;5.30;;
55603;SDS011;41468;48.838;9.330;2023-03-08T00:40:11;7.73;;;5.67;;
55603;SDS011;41468;48.838;9.330;2023-03-08T00:42:38;7.83;;;5.50;;
55603;SDS011;41468;48.838;9.330;2023-03-08T00:45:05;6.80;;;5.00;;
55603;SDS011;41468;48.838;9.330;2023-03-08T00:47:32;6.57;;;5.13;;
55603;SDS011;41468;48.838;9.330;2023-03-08T00:50:00;7.23;;;5.53;;
55603;SDS011;41468;48.838;9.330;2023-03-08T00:52:27;7.67;;;5.63;;
55603;SDS011;41468;48.838;9.330;2023-03-08T00:54:54;7.63;;;6.20;;
55603;SDS011;41468;48.838;9.330;2023-03-08T00:57:21;9.37;;;5.77;;
55603;SDS011;41468;48.838;9.330;2023-03-08T00:59:47;6.77;;;5.53;;
55603;SDS011;41468;48.838;9.330;2023-03-08T01:02:14;7.90;;;5.20;;
55603;SDS011;41468;48.838;9.330;2023-03-08T01:04:40;8.23;;;6.47;;
55603;SDS011;41468;48.838;9.330;2023-03-08T01:07:07;7.33;;;5.23;;
55603;SDS011;41468;48.838;9.330;2023-03-08T01:09:34;8.60;;;5.60;;
55603;SDS011;41468;48.838;9.330;2023-03-08T01:12:00;8.60;;;5.90;;
55603;SDS011;41468;48.838;9.330;2023-03-08T01:14:27;7.40;;;5.67;;
55603;SDS011;41468;48.838;9.330;2023-03-08T01:16:55;7.00;;;5.17;;
55603;SDS011;41468;48.838;9.330;2023-03-08T01:19:21;8.40;;;5.60;;
55603;SDS011;41468;48.838;9.330;2023-03-08T01:21:48;6.73;;;5.53;;
55603;SDS011;41468;48.838;9.330;2023-03-08T01:24:14;7.87;;;5.83;;
55603;SDS011;41468;48.838;9.330;2023-03-08T01:26:41;7.77;;;6.00;;
55603;SDS011;41468;48.838;9.330;2023-03-08T01:29:08;8.70;;;6.20;;
55603;SDS011;41468;48.838;9.330;2023-03-08T01:31:34;7.83;;;6.23;;
55603;SDS011;41468;48.838;9.330;2023-03-08T01:34:01;6.60;;;5.73;;
55603;SDS011;41468;48.838;9.330;2023-03-08T01:36:39;7.20;;;5.80;;
55603;SDS011;41468;48.838;9.330;2023-03-08T01:39:06;11.13;;;6.47;;
55603;SDS011;41468;48.838;9.330;2023-03-08T01:41:32;8.10;;;6.13;;
55603;SDS011;41468;48.838;9.330;2023-03-08T01:43:59;8.93;;;6.37;;
55603;SDS011;41468;48.838;9.330;2023-03-08T01:49:10;8.63;;;5.90;;
55603;SDS011;41468;48.838;9.330;2023-03-08T01:52:17;10.23;;;6.20;;
55603;SDS011;41468;48.838;9.330;2023-03-08T01:54:39;8.20;;;6.20;;
55603;SDS011;41468;48.838;9.330;2023-03-08T01:59:57;7.47;;;5.83;;
55603;SDS011;41468;48.838;9.330;2023-03-08T02:02:34;6.83;;;5.70;;
55603;SDS011;41468;48.838;9.330;2023-03-08T02:05:07;10.53;;;6.10;;
55603;SDS011;41468;48.838;9.330;2023-03-08T02:07:34;7.37;;;5.57;;
55603;SDS011;41468;48.838;9.330;2023-03-08T02:10:01;9.90;;;6.37;;
55603;SDS011;41468;48.838;9.330;2023-03-08T02:12:28;7.67;;;5.93;;
55603;SDS011;41468;48.838;9.330;2023-03-08T02:14:55;7.83;;;5.93;;
55603;SDS011;41468;48.838;9.330;2023-03-08T02:17:23;7.63;;;5.83;;
55603;SDS011;41468;48.838;9.330;2023-03-08T02:20:38;6.80;;;5.47;;
55603;SDS011;41468;48.838;9.330;2023-03-08T02:22:45;7.93;;;6.53;;
55603;SDS011;41468;48.838;9.330;2023-03-08T02:25:16;6.90;;;5.70;;
55603;SDS011;41468;48.838;9.330;2023-03-08T02:27:44;10.87;;;6.27;;
55603;SDS011;41468;48.838;9.330;2023-03-08T02:30:12;9.17;;;6.53;;
55603;SDS011;41468;48.838;9.330;2023-03-08T02:32:40;8.80;;;5.50;;
55603;SDS011;41468;48.838;9.330;2023-03-08T02:35:07;6.73;;;5.93;;
55603;SDS011;41468;48.838;9.330;2023-03-08T02:37:34;10.93;;;6.00;;
55603;SDS011;41468;48.838;9.330;2023-03-08T02:40:00;8.90;;;5.40;;
55603;SDS011;41468;48.838;9.330;2023-03-08T02:42:27;11.27;;;5.87;;
55603;SDS011;41468;48.838;9.330;2023-03-08T02:44:53;7.80;;;5.30;;
55603;SDS011;41468;48.838;9.330;2023-03-08T02:47:20;7.83;;;6.03;;
55603;SDS011;41468;48.838;9.330;2023-03-08T02:49:47;6.20;;;5.27;;
55603;SDS011;41468;48.838;9.330;2023-03-08T02:52:13;10.67;;;6.10;;
55603;SDS011;41468;48.838;9.330;2023-03-08T02:54:40;8.07;;;5.63;;
55603;SDS011;41468;48.838;9.330;2023-03-08T02:57:06;8.23;;;5.63;;
55603;SDS011;41468;48.838;9.330;2023-03-08T02:59:33;8.13;;;5.87;;
55603;SDS011;41468;48.838;9.330;2023-03-08T03:02:00;8.87;;;5.47;;
55603;SDS011;41468;48.838;9.330;2023-03-08T03:04:30;14.00;;;6.80;;
55603;SDS011;41468;48.838;9.330;2023-03-08T03:06:57;8.07;;;5.63;;
55603;SDS011;41468;48.838;9.330;2023-03-08T03:09:25;8.13;;;5.80;;
55603;SDS011;41468;48.838;9.330;2023-03-08T03:11:52;6.53;;;5.53;;
55603;SDS011;41468;48.838;9.330;2023-03-08T03:14:19;6.37;;;5.70;;
55603;SDS011;41468;48.838;9.330;2023-03-08T03:16:45;7.77;;;5.83;;
55603;SDS011;41468;48.838;9.330;2023-03-08T03:19:17;8.83;;;5.57;;
55603;SDS011;41468;48.838;9.330;2023-03-08T03:21:43;7.73;;;5.63;;
55603;SDS011;41468;48.838;9.330;2023-03-08T03:24:10;8.27;;;5.43;;
55603;SDS011;41468;48.838;9.330;2023-03-08T03:26:36;9.70;;;5.60;;
55603;SDS011;41468;48.838;9.330;2023-03-08T03:29:04;8.17;;;6.03;;
55603;SDS011;41468;48.838;9.330;2023-03-08T03:31:30;9.73;;;5.80;;
55603;SDS011;41468;48.838;9.330;2023-03-08T03:33:57;9.70;;;6.07;;
55603;SDS011;41468;48.838;9.330;2023-03-08T03:36:24;7.10;;;5.53;;
55603;SDS011;41468;48.838;9.330;2023-03-08T03:38:50;9.37;;;5.57;;
55603;SDS011;41468;48.838;9.330;2023-03-08T03:41:18;7.47;;;5.57;;
55603;SDS011;41468;48.838;9.330;2023-03-08T03:43:47;7.93;;;5.77;;
55603;SDS011;41468;48.838;9.330;2023-03-08T03:46:15;9.00;;;5.97;;
55603;SDS011;41468;48.838;9.330;2023-03-08T03:48:44;8.67;;;5.63;;
55603;SDS011;41468;48.838;9.330;2023-03-08T03:51:12;9.40;;;6.53;;
55603;SDS011;41468;48.838;9.330;2023-03-08T03:53:44;7.27;;;5.27;;
55603;SDS011;41468;48.838;9.330;2023-03-08T03:56:13;7.73;;;5.40;;
55603;SDS011;41468;48.838;9.330;2023-03-08T03:58:48;8.40;;;5.60;;
55603;SDS011;41468;48.838;9.330;2023-03-08T04:01:16;10.47;;;5.57;;
55603;SDS011;41468;48.838;9.330;2023-03-08T04:03:47;8.43;;;5.53;;
55603;SDS011;41468;48.838;9.330;2023-03-08T04:06:15;7.37;;;5.27;;
55603;SDS011;41468;48.838;9.330;2023-03-08T04:08:44;10.47;;;5.87;;
55603;SDS011;41468;48.838;9.330;2023-03-08T04:11:23;8.90;;;5.57;;
55603;SDS011;41468;48.838;9.330;2023-03-08T04:13:52;7.47;;;5.13;;
55603;SDS011;41468;48.838;9.330;2023-03-08T04:16:20;6.37;;;5.50;;
55603;SDS011;41468;48.838;9.330;2023-03-08T04:18:54;8.40;;;5.83;;
55603;SDS011;41468;48.838;9.330;2023-03-08T04:21:22;7.30;;;5.67;;
55603;SDS011;41468;48.838;9.330;2023-03-08T04:23:49;7.97;;;5.77;;
55603;SDS011;41468;48.838;9.330;2023-03-08T04:26:16;7.10;;;5.27;;
55603;SDS011;41468;48.838;9.330;2023-03-08T04:28:49;8.10;;;5.50;;
55603;SDS011;41468;48.838;9.330;2023-03-08T04:31:20;8.33;;;5.73;;
55603;SDS011;41468;48.838;9.330;2023-03-08T04:33:48;9.70;;;5.80;;
55603;SDS011;41468;48.838;9.330;2023-03-08T04:36:20;8.47;;;5.50;;
55603;SDS011;41468;48.838;9.330;2023-03-08T04:38:47;10.43;;;6.00;;
55603;SDS011;41468;48.838;9.330;2023-03-08T04:41:16;8.70;;;6.30;;
55603;SDS011;41468;48.838;9.330;2023-03-08T04:43:44;9.57;;;6.00;;
55603;SDS011;41468;48.838;9.330;2023-03-08T04:46:16;7.90;;;5.93;;
55603;SDS011;41468;48.838;9.330;2023-03-08T04:48:44;7.60;;;5.27;;
55603;SDS011;41468;48.838;9.330;2023-03-08T04:51:12;9.47;;;5.67;;
55603;SDS011;41468;48.838;9.330;2023-03-08T04:53:45;7.97;;;5.57;;
55603;SDS011;41468;48.838;9.330;2023-03-08T04:56:12;7.20;;;5.23;;
55603;SDS011;41468;48.838;9.330;2023-03-08T04:58:45;7.60;;;6.07;;
55603;SDS011;41468;48.838;9.330;2023-03-08T05:01:20;6.83;;;5.60;;
55603;SDS011;41468;48.838;9.330;2023-03-08T05:03:48;7.33;;;5.50;;
55603;SDS011;41468;48.838;9.330;2023-03-08T05:06:17;8.50;;;5.83;;
55603;SDS011;41468;48.838;9.330;2023-03-08T05:08:44;9.00;;;5.73;;
55603;SDS011;41468;48.838;9.330;2023-03-08T05:11:22;10.47;;;5.97;;
55603;SDS011;41468;48.838;9.330;2023-03-08T05:13:52;11.33;;;5.47;;
55603;SDS011;41468;48.838;9.330;2023-03-08T05:16:19;8.93;;;5.70;;
55603;SDS011;41468;48.838;9.330;2023-03-08T05:18:46;7.67;;;6.10;;
55603;SDS011;41468;48.838;9.330;2023-03-08T05:21:14;7.77;;;5.70;;
55603;SDS011;41468;48.838;9.330;2023-03-08T05:23:43;11.63;;;6.00;;
55603;SDS011;41468;48.838;9.330;2023-03-08T05:26:10;7.80;;;6.03;;
55603;SDS011;41468;48.838;9.330;2023-03-08T05:28:39;7.67;;;6.30;;
55603;SDS011;41468;48.838;9.330;2023-03-08T05:33:40;7.20;;;6.00;;
55603;SDS011;41468;48.838;9.330;2023-03-08T05:36:08;9.70;;;6.03;;
55603;SDS011;41468;48.838;9.330;2023-03-08T05:38:35;7.93;;;5.97;;
55603;SDS011;41468;48.838;9.330;2023-03-08T05:41:03;8.57;;;6.30;;
55603;SDS011;41468;48.838;9.330;2023-03-08T05:43:32;7.13;;;5.63;;
55603;SDS011;41468;48.838;9.330;2023-03-08T05:46:12;11.57;;;6.63;;
55603;SDS011;41468;48.838;9.330;2023-03-08T05:48:40;8.93;;;5.73;;
55603;SDS011;41468;48.838;9.330;2023-03-08T05:51:08;8.33;;;6.43;;
55603;SDS011;41468;48.838;9.330;2023-03-08T05:53:36;11.83;;;6.50;;
55603;SDS011;41468;48.838;9.330;2023-03-08T05:56:21;9.87;;;6.43;;
55603;SDS011;41468;48.838;9.330;2023-03-08T05:58:49;8.40;;;6.77;;
55603;SDS011;41468;48.838;9.330;2023-03-08T06:01:18;9.80;;;6.37;;
55603;SDS011;41468;48.838;9.330;2023-03-08T06:03:47;12.07;;;6.50;;
55603;SDS011;41468;48.838;9.330;2023-03-08T06:06:15;8.70;;;6.53;;
55603;SDS011;41468;48.838;9.330;2023-03-08T06:08:42;9.67;;;6.40;;
55603;SDS011;41468;48.838;9.330;2023-03-08T06:11:10;9.87;;;6.80;;
55603;SDS011;41468;48.838;9.330;2023-03-08T06:13:38;9.57;;;6.47;;
55603;SDS011;41468;48.838;9.330;2023-03-08T06:16:05;10.00;;;6.23;;
55603;SDS011;41468;48.838;9.330;2023-03-08T06:18:34;9.90;;;6.50;;
55603;SDS011;41468;48.838;9.330;2023-03-08T06:23:38;7.57;;;6.13;;
55603;SDS011;41468;48.838;9.330;2023-03-08T06:26:05;8.53;;;6.50;;
55603;SDS011;41468;48.838;9.330;2023-03-08T06:28:33;9.17;;;6.10;;
55603;SDS011;41468;48.838;9.330;2023-03-08T06:31:01;8.73;;;6.70;;
55603;SDS011;41468;48.838;9.330;2023-03-08T06:33:29;9.23;;;6.57;;
55603;SDS011;41468;48.838;9.330;2023-03-08T06:36:01;9.97;;;6.23;;
55603;SDS011;41468;48.838;9.330;2023-03-08T06:38:28;8.70;;;6.73;;
55603;SDS011;41468;48.838;9.330;2023-03-08T06:40:58;28.67;;;20.30;;
55603;SDS011;41468;48.838;9.330;2023-03-08T06:43:25;12.87;;;8.47;;
55603;SDS011;41468;48.838;9.330;2023-03-08T06:45:53;14.77;;;10.73;;
55603;SDS011;41468;48.838;9.330;2023-03-08T06:48:20;18.33;;;13.33;;
55603;SDS011;41468;48.838;9.330;2023-03-08T06:50:46;20.03;;;13.80;;
55603;SDS011;41468;48.838;9.330;2023-03-08T06:53:13;7.40;;;6.13;;
55603;SDS011;41468;48.838;9.330;2023-03-08T06:55:39;8.67;;;6.40;;
55603;SDS011;41468;48.838;9.330;2023-03-08T06:58:07;9.37;;;6.43;;
55603;SDS011;41468;48.838;9.330;2023-03-08T07:00:34;7.70;;;5.60;;
55603;SDS011;41468;48.838;9.330;2023-03-08T07:03:05;11.63;;;6.13;;
55603;SDS011;41468;48.838;9.330;2023-03-08T07:05:43;10.87;;;6.40;;
55603;SDS011;41468;48.838;9.330;2023-03-08T07:08:09;9.77;;;6.47;;
55603;SDS011;41468;48.838;9.330;2023-03-08T07:10:36;9.43;;;6.17;;
55603;SDS011;41468;48.838;9.330;2023-03-08T07:13:03;7.10;;;5.70;;
55603;SDS011;41468;48.838;9.330;2023-03-08T07:15:29;37.50;;;23.60;;
55603;SDS011;41468;48.838;9.330;2023-03-08T07:17:56;10.27;;;6.30;;
55603;SDS011;41468;48.838;9.330;2023-03-08T07:20:23;8.80;;;6.67;;
55603;SDS011;41468;48.838;9.330;2023-03-08T07:22:51;13.50;;;6.90;;
55603;SDS011;41468;48.838;9.330;2023-03-08T07:25:19;8.57;;;6.30;;
55603;SDS011;41468;48.838;9.330;2023-03-08T07:27:46;12.23;;;6.60;;
55603;SDS011;41468;48.838;9.330;2023-03-08T07:30:13;9.53;;;6.33;;
55603;SDS011;41468;48.838;9.330;2023-03-08T07:32:41;9.07;;;6.27;;
55603;SDS011;41468;48.838;9.330;2023-03-08T07:35:09;9.10;;;6.63;;
55603;SDS011;41468;48.838;9.330;2023-03-08T07:37:37;9.17;;;6.80;;
55603;SDS011;41468;48.838;9.330;2023-03-08T07:40:04;9.60;;;6.60;;
55603;SDS011;41468;48.838;9.330;2023-03-08T07:42:32;10.00;;;7.37;;
55603;SDS011;41468;48.838;9.330;2023-03-08T07:45:05;9.77;;;6.40;;
55603;SDS011;41468;48.838;9.330;2023-03-08T07:47:32;7.60;;;5.93;;
55603;SDS011;41468;48.838;9.330;2023-03-08T07:49:58;10.67;;;6.70;;
55603;SDS011;41468;48.838;9.330;2023-03-08T07:52:28;10.17;;;6.77;;
55603;SDS011;41468;48.838;9.330;2023-03-08T07:54:56;11.53;;;6.90;;
55603;SDS011;41468;48.838;9.330;2023-03-08T07:57:23;9.43;;;6.73;;
55603;SDS011;41468;48.838;9.330;2023-03-08T07:59:57;8.00;;;6.67;;
55603;SDS011;41468;48.838;9.330;2023-03-08T08:02:23;7.77;;;5.97;;
55603;SDS011;41468;48.838;9.330;2023-03-08T08:04:50;10.07;;;7.60;;
55603;SDS011;41468;48.838;9.330;2023-03-08T08:07:17;12.87;;;6.63;;
55603;SDS011;41468;48.838;9.330;2023-03-08T08:09:43;9.80;;;6.83;;
55603;SDS011;41468;48.838;9.330;2023-03-08T08:12:10;10.90;;;6.57;;
55603;SDS011;41468;48.838;9.330;2023-03-08T08:14:36;9.37;;;6.57;;
55603;SDS011;41468;48.838;9.330;2023-03-08T08:17:14;7.47;;;5.73;;
55603;SDS011;41468;48.838;9.330;2023-03-08T08:19:41;11.80;;;6.37;;
55603;SDS011;41468;48.838;9.330;2023-03-08T08:22:07;10.70;;;6.70;;
55603;SDS011;41468;48.838;9.330;2023-03-08T08:24:34;8.30;;;6.33;;
55603;SDS011;41468;48.838;9.330;2023-03-08T08:27:01;8.67;;;6.77;;
55603;SDS011;41468;48.838;9.330;2023-03-08T08:29:28;8.23;;;6.63;;
55603;SDS011;41468;48.838;9.330;2023-03-08T08:31:54;9.13;;;6.70;;
55603;SDS011;41468;48.838;9.330;2023-03-08T08:34:22;9.43;;;6.90;;
55603;SDS011;41468;48.838;9.330;2023-03-08T08:36:49;10.07;;;6.77;;
55603;SDS011;41468;48.838;9.330;2023-03-08T08:39:15;10.83;;;7.20;;
55603;SDS011;41468;48.838;9.330;2023-03-08T08:41:42;9.20;;;7.23;;
55603;SDS011;41468;48.838;9.330;2023-03-08T08:44:08;10.17;;;6.90;;
55603;SDS011;41468;48.838;9.330;2023-03-08T08:46:35;9.47;;;7.83;;
55603;SDS011;41468;48.838;9.330;2023-03-08T08:49:02;10.40;;;7.13;;
55603;SDS011;41468;48.838;9.330;2023-03-08T08:51:30;11.47;;;7.57;;
55603;SDS011;41468;48.838;9.330;2023-03-08T08:53:58;11.67;;;7.87;;
55603;SDS011;41468;48.838;9.330;2023-03-08T08:56:25;11.93;;;7.47;;
55603;SDS011;41468;48.838;9.330;2023-03-08T08:58:54;8.97;;;7.10;;
55603;SDS011;41468;48.838;9.330;2023-03-08T09:01:23;8.43;;;7.13;;
55603;SDS011;41468;48.838;9.330;2023-03-08T09:03:57;10.30;;;7.93;;
55603;SDS011;41468;48.838;9.330;2023-03-08T09:06:25;11.10;;;8.13;;
55603;SDS011;41468;48.838;9.330;2023-03-08T09:08:54;10.93;;;7.80;;
55603;SDS011;41468;48.838;9.330;2023-03-08T09:11:25;11.90;;;8.33;;
55603;SDS011;41468;48.838;9.330;2023-03-08T09:13:52;12.03;;;8.47;;
55603;SDS011;41468;48.838;9.330;2023-03-08T09:16:37;12.20;;;8.47;;
55603;SDS011;41468;48.838;9.330;2023-03-08T09:19:04;11.80;;;8.93;;
55603;SDS011;41468;48.838;9.330;2023-03-08T09:21:38;11.93;;;8.63;;
55603;SDS011;41468;48.838;9.330;2023-03-08T09:24:05;11.30;;;9.10;;
55603;SDS011;41468;48.838;9.330;2023-03-08T09:26:38;13.53;;;9.10;;
55603;SDS011;41468;48.838;9.330;2023-03-08T09:29:05;10.23;;;8.27;;
55603;SDS011;41468;48.838;9.330;2023-03-08T09:31:34;14.00;;;9.53;;
55603;SDS011;41468;48.838;9.330;2023-03-08T09:34:01;12.20;;;9.20;;
55603;SDS011;41468;48.838;9.330;2023-03-08T09:36:30;12.97;;;9.33;;
55603;SDS011;41468;48.838;9.330;2023-03-08T09:38:57;12.23;;;9.50;;
55603;SDS011;41468;48.838;9.330;2023-03-08T09:50:18;13.03;;;9.00;;
55603;SDS011;41468;48.838;9.330;2023-03-08T09:52:56;14.13;;;8.97;;
55603;SDS011;41468;48.838;9.330;2023-03-08T09:55:29;14.10;;;8.80;;
55603;SDS011;41468;48.838;9.330;2023-03-08T09:57:59;13.43;;;8.70;;
55603;SDS011;41468;48.838;9.330;2023-03-08T10:00:31;12.63;;;9.00;;
55603;SDS011;41468;48.838;9.330;2023-03-08T10:05:43;11.47;;;8.60;;
55603;SDS011;41468;48.838;9.330;2023-03-08T10:08:42;11.10;;;8.07;;
55603;SDS011;41468;48.838;9.330;2023-03-08T10:11:14;11.10;;;8.13;;
55603;SDS011;41468;48.838;9.330;2023-03-08T10:13:47;11.63;;;8.57;;
55603;SDS011;41468;48.838;9.330;2023-03-08T10:16:21;11.90;;;8.63;;
55603;SDS011;41468;48.838;9.330;2023-03-08T10:18:53;10.10;;;8.00;;
55603;SDS011;41468;48.838;9.330;2023-03-08T10:21:30;11.00;;;8.53;;
55603;SDS011;41468;48.838;9.330;2023-03-08T10:24:00;16.23;;;7.80;;
55603;SDS011;41468;48.838;9.330;2023-03-08T10:26:37;11.60;;;8.30;;
55603;SDS011;41468;48.838;9.330;2023-03-08T10:29:03;10.43;;;8.10;;
55603;SDS011;41468;48.838;9.330;2023-03-08T10:31:31;9.20;;;7.20;;
55603;SDS011;41468;48.838;9.330;2023-03-08T10:36:34;7.67;;;6.87;;
55603;SDS011;41468;48.838;9.330;2023-03-08T10:39:13;10.97;;;6.97;;
55603;SDS011;41468;48.838;9.330;2023-03-08T10:41:42;8.40;;;5.80;;
55603;SDS011;41468;48.838;9.330;2023-03-08T10:44:15;7.20;;;5.53;;
55603;SDS011;41468;48.838;9.330;2023-03-08T10:46:56;5.27;;;4.77;;
55603;SDS011;41468;48.838;9.330;2023-03-08T10:49:23;8.00;;;5.33;;
55603;SDS011;41468;48.838;9.330;2023-03-08T10:51:57;7.70;;;5.20;;
55603;SDS011;41468;48.838;9.330;2023-03-08T10:54:26;6.20;;;4.77;;
55603;SDS011;41468;48.838;9.330;2023-03-08T10:56:55;4.93;;;4.43;;
55603;SDS011;41468;48.838;9.330;2023-03-08T10:59:31;5.60;;;4.50;;
55603;SDS011;41468;48.838;9.330;2023-03-08T11:04:48;5.23;;;4.13;;
55603;SDS011;41468;48.838;9.330;2023-03-08T11:07:20;5.37;;;4.40;;
55603;SDS011;41468;48.838;9.330;2023-03-08T11:09:49;8.17;;;3.70;;
55603;SDS011;41468;48.838;9.330;2023-03-08T11:12:21;4.20;;;3.80;;
55603;SDS011;41468;48.838;9.330;2023-03-08T11:14:51;4.13;;;3.80;;
55603;SDS011;41468;48.838;9.330;2023-03-08T11:17:22;6.93;;;3.23;;
55603;SDS011;41468;48.838;9.330;2023-03-08T11:25:16;4.50;;;2.60;;
55603;SDS011;41468;48.838;9.330;2023-03-08T11:30:54;3.37;;;2.03;;
55603;SDS011;41468;48.838;9.330;2023-03-08T11:36:39;4.50;;;2.10;;
55603;SDS011;41468;48.838;9.330;2023-03-08T11:39:32;1.27;;;1.27;;
55603;SDS011;41468;48.838;9.330;2023-03-08T11:42:21;4.00;;;1.40;;
55603;SDS011;41468;48.838;9.330;2023-03-08T11:50:41;1.50;;;1.40;;
55603;SDS011;41468;48.838;9.330;2023-03-08T11:56:03;1.00;;;1.00;;
55603;SDS011;41468;48.838;9.330;2023-03-08T11:58:48;0.90;;;0.90;;
55603;SDS011;41468;48.838;9.330;2023-03-08T12:01:20;1.10;;;1.10;;
55603;SDS011;41468;48.838;9.330;2023-03-08T12:03:51;5.70;;;1.40;;
55603;SDS011;41468;48.838;9.330;2023-03-08T12:06:25;1.10;;;1.10;;
55603;SDS011;41468;48.838;9.330;2023-03-08T12:11:45;1.10;;;1.10;;
55603;SDS011;41468;48.838;9.330;2023-03-08T12:14:25;1.43;;;1.33;;
55603;SDS011;41468;48.838;9.330;2023-03-08T12:17:01;1.03;;;1.03;;
55603;SDS011;41468;48.838;9.330;2023-03-08T12:19:42;1.27;;;1.20;;
55603;SDS011;41468;48.838;9.330;2023-03-08T12:25:14;1.27;;;1.17;;
55603;SDS011;41468;48.838;9.330;2023-03-08T12:27:49;1.33;;;1.23;;
55603;SDS011;41468;48.838;9.330;2023-03-08T12:30:22;1.23;;;1.10;;
55603;SDS011;41468;48.838;9.330;2023-03-08T12:33:00;1.40;;;1.30;;
55603;SDS011;41468;48.838;9.330;2023-03-08T12:35:31;1.13;;;1.13;;
55603;SDS011;41468;48.838;9.330;2023-03-08T12:38:00;4.63;;;1.30;;
55603;SDS011;41468;48.838;9.330;2023-03-08T12:40:35;2.03;;;1.30;;
55603;SDS011;41468;48.838;9.330;2023-03-08T12:43:13;5.70;;;4.90;;
55603;SDS011;41468;48.838;9.330;2023-03-08T12:46:01;2.97;;;2.77;;
55603;SDS011;41468;48.838;9.330;2023-03-08T12:51:02;3.33;;;1.27;;
55603;SDS011;41468;48.838;9.330;2023-03-08T12:53:37;3.23;;;1.40;;
55603;SDS011;41468;48.838;9.330;2023-03-08T12:58:37;1.30;;;1.10;;
55603;SDS011;41468;48.838;9.330;2023-03-08T13:03:54;1.17;;;1.03;;
55603;SDS011;41468;48.838;9.330;2023-03-08T13:08:52;1.30;;;1.20;;
55603;SDS011;41468;48.838;9.330;2023-03-08T13:11:23;1.10;;;1.00;;
55603;SDS011;41468;48.838;9.330;2023-03-08T13:13:55;2.20;;;1.00;;
55603;SDS011;41468;48.838;9.330;2023-03-08T13:21:49;1.67;;;1.30;;
55603;SDS011;41468;48.838;9.330;2023-03-08T13:24:29;3.43;;;1.23;;
55603;SDS011;41468;48.838;9.330;2023-03-08T13:29:34;2.20;;;1.10;;
55603;SDS011;41468;48.838;9.330;2023-03-08T13:32:05;3.43;;;1.00;;
55603;SDS011;41468;48.838;9.330;2023-03-08T13:34:37;5.03;;;1.60;;
55603;SDS011;41468;48.838;9.330;2023-03-08T13:37:04;1.00;;;1.00;;
55603;SDS011;41468;48.838;9.330;2023-03-08T13:39:30;1.03;;;1.00;;
55603;SDS011;41468;48.838;9.330;2023-03-08T13:42:07;4.13;;;0.73;;
55603;SDS011;41468;48.838;9.330;2023-03-08T13:44:36;2.37;;;2.17;;
55603;SDS011;41468;48.838;9.330;2023-03-08T13:47:41;11.13;;;6.63;;
55603;SDS011;41468;48.838;9.330;2023-03-08T13:50:03;1.67;;;1.50;;
55603;SDS011;41468;48.838;9.330;2023-03-08T13:52:32;1.30;;;1.23;;
55603;SDS011;41468;48.838;9.330;2023-03-08T13:55:17;1.73;;;1.10;;
55603;SDS011;41468;48.838;9.330;2023-03-08T13:57:47;0.70;;;0.70;;
55603;SDS011;41468;48.838;9.330;2023-03-08T14:02:44;2.17;;;1.00;;
55603;SDS011;41468;48.838;9.330;2023-03-08T14:05:14;1.30;;;1.13;;
55603;SDS011;41468;48.838;9.330;2023-03-08T14:07:54;0.83;;;0.83;;
55603;SDS011;41468;48.838;9.330;2023-03-08T14:11:14;1.23;;;1.17;;
55603;SDS011;41468;48.838;9.330;2023-03-08T14:13:27;0.60;;;0.60;;
55603;SDS011;41468;48.838;9.330;2023-03-08T14:15:58;2.97;;;0.77;;
55603;SDS011;41468;48.838;9.330;2023-03-08T14:18:31;2.50;;;0.60;;
55603;SDS011;41468;48.838;9.330;2023-03-08T14:23:51;0.80;;;0.80;;
55603;SDS011;41468;48.838;9.330;2023-03-08T14:31:54;1.43;;;0.80;;
55603;SDS011;41468;48.838;9.330;2023-03-08T14:34:22;1.37;;;0.87;;
55603;SDS011;41468;48.838;9.330;2023-03-08T14:36:52;1.23;;;0.70;;
55603;SDS011;41468;48.838;9.330;2023-03-08T14:39:25;1.33;;;0.77;;
55603;SDS011;41468;48.838;9.330;2023-03-08T14:41:53;0.50;;;0.50;;
55603;SDS011;41468;48.838;9.330;2023-03-08T14:44:25;2.53;;;0.70;;
55603;SDS011;41468;48.838;9.330;2023-03-08T14:46:54;2.30;;;0.70;;
55603;SDS011;41468;48.838;9.330;2023-03-08T14:49:25;0.60;;;0.60;;
55603;SDS011;41468;48.838;9.330;2023-03-08T14:51:53;0.60;;;0.60;;
55603;SDS011;41468;48.838;9.330;2023-03-08T14:57:00;1.23;;;1.13;;
55603;SDS011;41468;48.838;9.330;2023-03-08T14:59:39;3.03;;;0.73;;
55603;SDS011;41468;48.838;9.330;2023-03-08T15:02:10;0.83;;;0.60;;
55603;SDS011;41468;48.838;9.330;2023-03-08T15:04:38;0.57;;;0.30;;
55603;SDS011;41468;48.838;9.330;2023-03-08T15:07:05;0.60;;;0.60;;
55603;SDS011;41468;48.838;9.330;2023-03-08T15:09:33;0.73;;;0.47;;
55603;SDS011;41468;48.838;9.330;2023-03-08T15:12:00;0.50;;;0.50;;
55603;SDS011;41468;48.838;9.330;2023-03-08T15:14:27;0.53;;;0.53;;
55603;SDS011;41468;48.838;9.330;2023-03-08T15:16:55;1.00;;;0.47;;
55603;SDS011;41468;48.838;9.330;2023-03-08T15:19:23;1.13;;;0.70;;
55603;SDS011;41468;48.838;9.330;2023-03-08T15:21:50;1.40;;;0.80;;
55603;SDS011;41468;48.838;9.330;2023-03-08T15:24:17;1.67;;;0.50;;
55603;SDS011;41468;48.838;9.330;2023-03-08T15:26:44;1.63;;;0.77;;
55603;SDS011;41468;48.838;9.330;2023-03-08T15:29:21;0.60;;;0.60;;
55603;SDS011;41468;48.838;9.330;2023-03-08T15:31:53;4.67;;;1.00;;
55603;SDS011;41468;48.838;9.330;2023-03-08T15:34:21;0.90;;;0.70;;
55603;SDS011;41468;48.838;9.330;2023-03-08T15:36:48;0.93;;;0.57;;
55603;SDS011;41468;48.838;9.330;2023-03-08T15:39:16;4.20;;;0.70;;
55603;SDS011;41468;48.838;9.330;2023-03-08T15:41:42;1.70;;;0.60;;
55603;SDS011;41468;48.838;9.330;2023-03-08T15:44:09;1.60;;;0.70;;
55603;SDS011;41468;48.838;9.330;2023-03-08T15:46:36;1.07;;;1.00;;
55603;SDS011;41468;48.838;9.330;2023-03-08T15:49:03;0.67;;;0.67;;
55603;SDS011;41468;48.838;9.330;2023-03-08T15:51:31;0.67;;;0.67;;
55603;SDS011;41468;48.838;9.330;2023-03-08T15:54:00;0.60;;;0.60;;
55603;SDS011;41468;48.838;9.330;2023-03-08T15:56:28;0.70;;;0.70;;
55603;SDS011;41468;48.838;9.330;2023-03-08T15:58:54;0.60;;;0.60;;
55603;SDS011;41468;48.838;9.330;2023-03-08T16:01:22;0.60;;;0.60;;
55603;SDS011;41468;48.838;9.330;2023-03-08T16:03:50;0.67;;;0.67;;
55603;SDS011;41468;48.838;9.330;2023-03-08T16:06:18;0.93;;;0.73;;
55603;SDS011;41468;48.838;9.330;2023-03-08T16:08:45;0.60;;;0.60;;
55603;SDS011;41468;48.838;9.330;2023-03-08T16:11:13;0.60;;;0.60;;
55603;SDS011;41468;48.838;9.330;2023-03-08T16:13:41;0.53;;;0.53;;
55603;SDS011;41468;48.838;9.330;2023-03-08T16:16:08;4.53;;;0.73;;
55603;SDS011;41468;48.838;9.330;2023-03-08T16:18:35;0.70;;;0.70;;
55603;SDS011;41468;48.838;9.330;2023-03-08T16:21:05;0.80;;;0.77;;
55603;SDS011;41468;48.838;9.330;2023-03-08T16:23:37;0.80;;;0.80;;
55603;SDS011;41468;48.838;9.330;2023-03-08T16:26:05;0.60;;;0.60;;